sensor_id;sensor_type;location;lat;lon;timestamp;P1;durP1;ratioP1;P2;durP2;ratioP2
42124;SDS011;27787;44.594;11.046;2023-08-24T00:00:51;6.38;;;4.35;;
42124;SDS011;27787;44.594;11.046;2023-08-24T00:03:35;7.93;;;4.60;;
42124;SDS011;27787;44.594;11.046;2023-08-24T00:06:18;8.82;;;4.78;;
42124;SDS011;27787;44.594;11.046;2023-08-24T00:09:03;5.05;;;4.22;;
42124;SDS011;27787;44.594;11.046;2023-08-24T00:11:49;7.78;;;4.80;;
42124;SDS011;27787;44.594;11.046;2023-08-24T00:14:34;13.25;;;4.78;;
42124;SDS011;27787;44.594;11.046;2023-08-24T00:17:18;9.33;;;4.60;;
42124;SDS011;27787;44.594;11.046;2023-08-24T00:22:48;8.40;;;4.97;;
42124;SDS011;27787;44.594;11.046;2023-08-24T00:25:32;5.97;;;4.60;;
42124;SDS011;27787;44.594;11.046;2023-08-24T00:28:16;6.93;;;5.00;;
42124;SDS011;27787;44.594;11.046;2023-08-24T00:31:01;12.85;;;4.70;;
42124;SDS011;27787;44.594;11.046;2023-08-24T00:33:45;6.03;;;4.43;;
42124;SDS011;27787;44.594;11.046;2023-08-24T00:36:30;8.63;;;5.45;;
42124;SDS011;27787;44.594;11.046;2023-08-24T00:39:14;14.77;;;5.33;;
42124;SDS011;27787;44.594;11.046;2023-08-24T00:41:59;7.72;;;5.03;;
42124;SDS011;27787;44.594;11.046;2023-08-24T00:44:43;7.73;;;4.70;;
42124;SDS011;27787;44.594;11.046;2023-08-24T00:47:28;6.47;;;5.07;;
42124;SDS011;27787;44.594;11.046;2023-08-24T00:50:13;7.50;;;4.40;;
42124;SDS011;27787;44.594;11.046;2023-08-24T00:52:59;8.30;;;4.88;;
42124;SDS011;27787;44.594;11.046;2023-08-24T00:55:44;7.93;;;5.28;;
42124;SDS011;27787;44.594;11.046;2023-08-24T00:58:28;5.50;;;4.35;;
42124;SDS011;27787;44.594;11.046;2023-08-24T01:01:13;8.15;;;4.50;;
42124;SDS011;27787;44.594;11.046;2023-08-24T01:03:59;5.63;;;3.97;;
42124;SDS011;27787;44.594;11.046;2023-08-24T01:06:43;6.20;;;4.28;;
42124;SDS011;27787;44.594;11.046;2023-08-24T01:09:27;8.63;;;5.35;;
42124;SDS011;27787;44.594;11.046;2023-08-24T01:12:15;5.85;;;4.30;;
42124;SDS011;27787;44.594;11.046;2023-08-24T01:17:45;9.70;;;4.00;;
42124;SDS011;27787;44.594;11.046;2023-08-24T01:20:31;7.05;;;4.40;;
42124;SDS011;27787;44.594;11.046;2023-08-24T01:23:23;9.45;;;4.43;;
42124;SDS011;27787;44.594;11.046;2023-08-24T01:26:19;7.28;;;4.60;;
42124;SDS011;27787;44.594;11.046;2023-08-24T01:29:04;6.00;;;4.43;;
42124;SDS011;27787;44.594;11.046;2023-08-24T01:31:49;6.40;;;4.47;;
42124;SDS011;27787;44.594;11.046;2023-08-24T01:34:36;6.05;;;4.38;;
42124;SDS011;27787;44.594;11.046;2023-08-24T01:37:21;6.28;;;4.20;;
42124;SDS011;27787;44.594;11.046;2023-08-24T01:43:03;9.13;;;3.95;;
42124;SDS011;27787;44.594;11.046;2023-08-24T01:45:49;5.70;;;4.15;;
42124;SDS011;27787;44.594;11.046;2023-08-24T01:48:37;7.75;;;4.13;;
42124;SDS011;27787;44.594;11.046;2023-08-24T01:51:22;8.05;;;4.70;;
42124;SDS011;27787;44.594;11.046;2023-08-24T01:54:08;6.93;;;4.60;;
42124;SDS011;27787;44.594;11.046;2023-08-24T01:59:37;4.82;;;3.75;;
42124;SDS011;27787;44.594;11.046;2023-08-24T02:02:23;8.43;;;4.43;;
42124;SDS011;27787;44.594;11.046;2023-08-24T02:05:08;5.53;;;3.75;;
42124;SDS011;27787;44.594;11.046;2023-08-24T02:07:52;6.65;;;4.57;;
42124;SDS011;27787;44.594;11.046;2023-08-24T02:13:21;8.88;;;4.50;;
42124;SDS011;27787;44.594;11.046;2023-08-24T02:16:06;6.05;;;4.55;;
42124;SDS011;27787;44.594;11.046;2023-08-24T02:18:53;5.85;;;4.32;;
42124;SDS011;27787;44.594;11.046;2023-08-24T02:21:37;6.57;;;4.30;;
42124;SDS011;27787;44.594;11.046;2023-08-24T02:24:21;7.32;;;4.07;;
42124;SDS011;27787;44.594;11.046;2023-08-24T02:27:06;8.00;;;4.60;;
42124;SDS011;27787;44.594;11.046;2023-08-24T02:29:50;6.28;;;4.22;;
42124;SDS011;27787;44.594;11.046;2023-08-24T02:32:34;7.35;;;4.85;;
42124;SDS011;27787;44.594;11.046;2023-08-24T02:35:19;5.85;;;4.32;;
42124;SDS011;27787;44.594;11.046;2023-08-24T02:38:03;8.77;;;4.85;;
42124;SDS011;27787;44.594;11.046;2023-08-24T02:40:47;7.00;;;4.38;;
42124;SDS011;27787;44.594;11.046;2023-08-24T02:43:31;6.85;;;4.65;;
42124;SDS011;27787;44.594;11.046;2023-08-24T02:46:16;5.93;;;4.55;;
42124;SDS011;27787;44.594;11.046;2023-08-24T02:49:02;8.05;;;4.68;;
42124;SDS011;27787;44.594;11.046;2023-08-24T02:51:46;5.37;;;4.37;;
42124;SDS011;27787;44.594;11.046;2023-08-24T02:54:30;6.55;;;4.50;;
42124;SDS011;27787;44.594;11.046;2023-08-24T02:57:14;8.73;;;4.93;;
42124;SDS011;27787;44.594;11.046;2023-08-24T02:59:59;8.07;;;4.90;;
42124;SDS011;27787;44.594;11.046;2023-08-24T03:02:43;6.53;;;4.88;;
42124;SDS011;27787;44.594;11.046;2023-08-24T03:05:27;7.18;;;4.50;;
42124;SDS011;27787;44.594;11.046;2023-08-24T03:08:11;6.32;;;4.60;;
42124;SDS011;27787;44.594;11.046;2023-08-24T03:10:55;9.57;;;5.47;;
42124;SDS011;27787;44.594;11.046;2023-08-24T03:13:40;7.88;;;4.53;;
42124;SDS011;27787;44.594;11.046;2023-08-24T03:16:25;6.55;;;4.65;;
42124;SDS011;27787;44.594;11.046;2023-08-24T03:19:11;6.35;;;4.70;;
42124;SDS011;27787;44.594;11.046;2023-08-24T03:24:40;6.63;;;4.88;;
42124;SDS011;27787;44.594;11.046;2023-08-24T03:27:24;7.20;;;4.80;;
42124;SDS011;27787;44.594;11.046;2023-08-24T03:30:09;10.13;;;5.07;;
42124;SDS011;27787;44.594;11.046;2023-08-24T03:32:53;8.68;;;5.30;;
42124;SDS011;27787;44.594;11.046;2023-08-24T03:35:37;9.45;;;5.88;;
42124;SDS011;27787;44.594;11.046;2023-08-24T03:38:22;14.73;;;7.82;;
42124;SDS011;27787;44.594;11.046;2023-08-24T03:41:06;14.43;;;8.50;;
42124;SDS011;27787;44.594;11.046;2023-08-24T03:43:51;11.90;;;7.22;;
42124;SDS011;27787;44.594;11.046;2023-08-24T03:46:36;10.68;;;6.88;;
42124;SDS011;27787;44.594;11.046;2023-08-24T03:49:19;11.32;;;7.18;;
42124;SDS011;27787;44.594;11.046;2023-08-24T03:52:04;14.48;;;6.85;;
42124;SDS011;27787;44.594;11.046;2023-08-24T03:54:49;9.35;;;6.75;;
42124;SDS011;27787;44.594;11.046;2023-08-24T03:57:35;10.55;;;6.95;;
42124;SDS011;27787;44.594;11.046;2023-08-24T04:00:20;9.20;;;6.07;;
42124;SDS011;27787;44.594;11.046;2023-08-24T04:03:05;9.73;;;5.95;;
42124;SDS011;27787;44.594;11.046;2023-08-24T04:05:50;12.30;;;6.20;;
42124;SDS011;27787;44.594;11.046;2023-08-24T04:08:34;11.98;;;6.10;;
42124;SDS011;27787;44.594;11.046;2023-08-24T04:11:19;7.60;;;6.07;;
42124;SDS011;27787;44.594;11.046;2023-08-24T04:14:04;12.63;;;6.22;;
42124;SDS011;27787;44.594;11.046;2023-08-24T04:16:48;8.18;;;6.20;;
42124;SDS011;27787;44.594;11.046;2023-08-24T04:19:31;10.63;;;6.57;;
42124;SDS011;27787;44.594;11.046;2023-08-24T04:22:16;17.50;;;7.97;;
42124;SDS011;27787;44.594;11.046;2023-08-24T04:25:00;10.68;;;6.65;;
42124;SDS011;27787;44.594;11.046;2023-08-24T04:27:44;12.43;;;7.20;;
42124;SDS011;27787;44.594;11.046;2023-08-24T04:30:30;12.68;;;6.03;;
42124;SDS011;27787;44.594;11.046;2023-08-24T04:33:14;9.48;;;6.50;;
42124;SDS011;27787;44.594;11.046;2023-08-24T04:35:58;11.27;;;6.38;;
42124;SDS011;27787;44.594;11.046;2023-08-24T04:38:42;13.70;;;6.93;;
42124;SDS011;27787;44.594;11.046;2023-08-24T04:41:27;9.07;;;5.85;;
42124;SDS011;27787;44.594;11.046;2023-08-24T04:44:11;8.68;;;5.60;;
42124;SDS011;27787;44.594;11.046;2023-08-24T04:46:56;13.43;;;5.65;;
42124;SDS011;27787;44.594;11.046;2023-08-24T04:49:40;8.98;;;5.55;;
42124;SDS011;27787;44.594;11.046;2023-08-24T04:52:24;17.00;;;5.88;;
42124;SDS011;27787;44.594;11.046;2023-08-24T04:55:08;12.57;;;6.13;;
42124;SDS011;27787;44.594;11.046;2023-08-24T04:57:52;11.88;;;5.55;;
42124;SDS011;27787;44.594;11.046;2023-08-24T05:00:37;14.65;;;5.93;;
42124;SDS011;27787;44.594;11.046;2023-08-24T05:03:21;11.40;;;5.28;;
42124;SDS011;27787;44.594;11.046;2023-08-24T05:06:05;9.77;;;5.05;;
42124;SDS011;27787;44.594;11.046;2023-08-24T05:08:49;11.48;;;5.75;;
42124;SDS011;27787;44.594;11.046;2023-08-24T05:11:34;6.28;;;4.85;;
42124;SDS011;27787;44.594;11.046;2023-08-24T05:14:17;8.10;;;5.10;;
42124;SDS011;27787;44.594;11.046;2023-08-24T05:17:02;7.03;;;5.15;;
42124;SDS011;27787;44.594;11.046;2023-08-24T05:19:46;7.40;;;5.20;;
42124;SDS011;27787;44.594;11.046;2023-08-24T05:22:30;9.75;;;5.65;;
42124;SDS011;27787;44.594;11.046;2023-08-24T05:25:14;10.50;;;5.43;;
42124;SDS011;27787;44.594;11.046;2023-08-24T05:28:00;11.30;;;5.60;;
42124;SDS011;27787;44.594;11.046;2023-08-24T05:30:44;9.43;;;5.82;;
42124;SDS011;27787;44.594;11.046;2023-08-24T05:33:28;10.20;;;5.75;;
42124;SDS011;27787;44.594;11.046;2023-08-24T05:36:14;8.00;;;4.95;;
42124;SDS011;27787;44.594;11.046;2023-08-24T05:38:58;8.75;;;5.72;;
42124;SDS011;27787;44.594;11.046;2023-08-24T05:41:42;10.15;;;5.72;;
42124;SDS011;27787;44.594;11.046;2023-08-24T05:44:27;51.15;;;9.90;;
42124;SDS011;27787;44.594;11.046;2023-08-24T05:47:11;15.55;;;6.82;;
42124;SDS011;27787;44.594;11.046;2023-08-24T05:49:56;9.82;;;5.80;;
42124;SDS011;27787;44.594;11.046;2023-08-24T05:52:40;9.07;;;5.18;;
42124;SDS011;27787;44.594;11.046;2023-08-24T05:55:24;9.57;;;5.85;;
42124;SDS011;27787;44.594;11.046;2023-08-24T06:00:57;12.32;;;5.60;;
42124;SDS011;27787;44.594;11.046;2023-08-24T06:03:42;8.48;;;5.25;;
42124;SDS011;27787;44.594;11.046;2023-08-24T06:06:26;7.30;;;4.70;;
42124;SDS011;27787;44.594;11.046;2023-08-24T06:09:10;14.27;;;5.28;;
42124;SDS011;27787;44.594;11.046;2023-08-24T06:11:54;9.38;;;5.28;;
42124;SDS011;27787;44.594;11.046;2023-08-24T06:14:38;11.27;;;4.78;;
42124;SDS011;27787;44.594;11.046;2023-08-24T06:17:22;8.32;;;5.00;;
42124;SDS011;27787;44.594;11.046;2023-08-24T06:20:06;9.13;;;4.68;;
42124;SDS011;27787;44.594;11.046;2023-08-24T06:22:54;8.73;;;5.03;;
42124;SDS011;27787;44.594;11.046;2023-08-24T06:25:39;9.90;;;5.30;;
42124;SDS011;27787;44.594;11.046;2023-08-24T06:28:23;7.88;;;5.40;;
42124;SDS011;27787;44.594;11.046;2023-08-24T06:31:07;15.18;;;5.47;;
42124;SDS011;27787;44.594;11.046;2023-08-24T06:33:51;9.60;;;5.63;;
42124;SDS011;27787;44.594;11.046;2023-08-24T06:36:36;8.38;;;4.82;;
42124;SDS011;27787;44.594;11.046;2023-08-24T06:39:20;9.05;;;5.32;;
42124;SDS011;27787;44.594;11.046;2023-08-24T06:42:04;9.43;;;4.70;;
42124;SDS011;27787;44.594;11.046;2023-08-24T06:44:49;11.85;;;5.47;;
42124;SDS011;27787;44.594;11.046;2023-08-24T06:47:34;7.70;;;5.35;;
42124;SDS011;27787;44.594;11.046;2023-08-24T06:50:18;10.85;;;5.00;;
42124;SDS011;27787;44.594;11.046;2023-08-24T06:53:05;7.85;;;5.28;;
42124;SDS011;27787;44.594;11.046;2023-08-24T06:55:53;11.10;;;4.82;;
42124;SDS011;27787;44.594;11.046;2023-08-24T06:58:39;7.30;;;5.05;;
42124;SDS011;27787;44.594;11.046;2023-08-24T07:01:23;8.02;;;4.80;;
42124;SDS011;27787;44.594;11.046;2023-08-24T07:04:09;10.77;;;5.20;;
42124;SDS011;27787;44.594;11.046;2023-08-24T07:06:53;9.93;;;5.13;;
42124;SDS011;27787;44.594;11.046;2023-08-24T07:09:37;10.90;;;5.40;;
42124;SDS011;27787;44.594;11.046;2023-08-24T07:12:21;13.13;;;5.80;;
42124;SDS011;27787;44.594;11.046;2023-08-24T07:15:06;11.15;;;5.68;;
42124;SDS011;27787;44.594;11.046;2023-08-24T07:20:35;11.75;;;5.70;;
42124;SDS011;27787;44.594;11.046;2023-08-24T07:23:20;8.88;;;5.07;;
42124;SDS011;27787;44.594;11.046;2023-08-24T07:26:04;14.55;;;6.78;;
42124;SDS011;27787;44.594;11.046;2023-08-24T07:28:49;9.35;;;5.88;;
42124;SDS011;27787;44.594;11.046;2023-08-24T07:31:32;20.83;;;6.75;;
42124;SDS011;27787;44.594;11.046;2023-08-24T07:34:16;14.63;;;6.38;;
42124;SDS011;27787;44.594;11.046;2023-08-24T07:37:00;11.85;;;6.05;;
42124;SDS011;27787;44.594;11.046;2023-08-24T07:42:29;10.38;;;6.88;;
42124;SDS011;27787;44.594;11.046;2023-08-24T07:45:13;12.52;;;6.18;;
42124;SDS011;27787;44.594;11.046;2023-08-24T07:47:58;10.95;;;6.43;;
42124;SDS011;27787;44.594;11.046;2023-08-24T07:50:42;10.30;;;6.57;;
42124;SDS011;27787;44.594;11.046;2023-08-24T07:53:25;10.02;;;6.25;;
42124;SDS011;27787;44.594;11.046;2023-08-24T07:56:10;12.65;;;6.55;;
42124;SDS011;27787;44.594;11.046;2023-08-24T07:58:54;9.75;;;5.32;;
42124;SDS011;27787;44.594;11.046;2023-08-24T08:01:38;9.80;;;5.57;;
42124;SDS011;27787;44.594;11.046;2023-08-24T08:04:22;9.10;;;6.20;;
42124;SDS011;27787;44.594;11.046;2023-08-24T08:07:06;9.93;;;6.38;;
42124;SDS011;27787;44.594;11.046;2023-08-24T08:09:51;12.95;;;7.40;;
42124;SDS011;27787;44.594;11.046;2023-08-24T08:12:35;8.57;;;6.32;;
42124;SDS011;27787;44.594;11.046;2023-08-24T08:15:19;11.63;;;7.03;;
42124;SDS011;27787;44.594;11.046;2023-08-24T08:18:04;10.38;;;6.43;;
42124;SDS011;27787;44.594;11.046;2023-08-24T08:23:34;18.45;;;7.78;;
42124;SDS011;27787;44.594;11.046;2023-08-24T08:26:18;13.20;;;6.60;;
42124;SDS011;27787;44.594;11.046;2023-08-24T08:29:03;14.38;;;6.38;;
42124;SDS011;27787;44.594;11.046;2023-08-24T08:31:47;12.23;;;5.32;;
42124;SDS011;27787;44.594;11.046;2023-08-24T08:34:31;12.82;;;5.93;;
42124;SDS011;27787;44.594;11.046;2023-08-24T08:37:15;10.00;;;6.35;;
42124;SDS011;27787;44.594;11.046;2023-08-24T08:39:59;17.80;;;6.55;;
42124;SDS011;27787;44.594;11.046;2023-08-24T08:42:43;9.60;;;6.28;;
42124;SDS011;27787;44.594;11.046;2023-08-24T08:45:28;11.32;;;5.68;;
42124;SDS011;27787;44.594;11.046;2023-08-24T08:48:13;10.10;;;6.13;;
42124;SDS011;27787;44.594;11.046;2023-08-24T08:50:57;11.90;;;6.20;;
42124;SDS011;27787;44.594;11.046;2023-08-24T08:53:43;13.48;;;7.80;;
42124;SDS011;27787;44.594;11.046;2023-08-24T08:56:27;12.93;;;6.18;;
42124;SDS011;27787;44.594;11.046;2023-08-24T08:59:13;9.95;;;6.43;;
42124;SDS011;27787;44.594;11.046;2023-08-24T09:01:58;12.48;;;7.60;;
42124;SDS011;27787;44.594;11.046;2023-08-24T09:04:45;11.50;;;7.38;;
42124;SDS011;27787;44.594;11.046;2023-08-24T09:07:29;13.63;;;7.40;;
42124;SDS011;27787;44.594;11.046;2023-08-24T09:10:13;10.85;;;7.15;;
42124;SDS011;27787;44.594;11.046;2023-08-24T09:12:57;10.07;;;5.90;;
42124;SDS011;27787;44.594;11.046;2023-08-24T09:15:41;8.90;;;5.53;;
42124;SDS011;27787;44.594;11.046;2023-08-24T09:18:33;7.40;;;5.07;;
42124;SDS011;27787;44.594;11.046;2023-08-24T09:21:23;10.93;;;6.05;;
42124;SDS011;27787;44.594;11.046;2023-08-24T09:24:07;9.90;;;6.45;;
42124;SDS011;27787;44.594;11.046;2023-08-24T09:29:36;11.48;;;5.80;;
42124;SDS011;27787;44.594;11.046;2023-08-24T09:35:07;7.60;;;5.18;;
42124;SDS011;27787;44.594;11.046;2023-08-24T09:37:52;9.68;;;5.15;;
42124;SDS011;27787;44.594;11.046;2023-08-24T09:40:37;6.70;;;5.20;;
42124;SDS011;27787;44.594;11.046;2023-08-24T09:43:21;11.60;;;5.22;;
42124;SDS011;27787;44.594;11.046;2023-08-24T09:46:07;6.43;;;5.20;;
42124;SDS011;27787;44.594;11.046;2023-08-24T09:48:54;7.32;;;5.13;;
42124;SDS011;27787;44.594;11.046;2023-08-24T09:51:41;5.72;;;4.40;;
42124;SDS011;27787;44.594;11.046;2023-08-24T09:54:27;6.47;;;4.75;;
42124;SDS011;27787;44.594;11.046;2023-08-24T09:57:15;6.00;;;4.03;;
42124;SDS011;27787;44.594;11.046;2023-08-24T10:00:00;7.97;;;4.68;;
42124;SDS011;27787;44.594;11.046;2023-08-24T10:02:48;11.75;;;5.00;;
42124;SDS011;27787;44.594;11.046;2023-08-24T10:05:34;8.98;;;5.55;;
42124;SDS011;27787;44.594;11.046;2023-08-24T10:11:05;5.80;;;4.50;;
42124;SDS011;27787;44.594;11.046;2023-08-24T10:16:54;11.57;;;5.20;;
42124;SDS011;27787;44.594;11.046;2023-08-24T10:19:39;6.28;;;4.60;;
42124;SDS011;27787;44.594;11.046;2023-08-24T10:22:25;10.35;;;5.45;;
42124;SDS011;27787;44.594;11.046;2023-08-24T10:25:09;9.65;;;5.28;;
42124;SDS011;27787;44.594;11.046;2023-08-24T10:27:54;9.65;;;5.07;;
42124;SDS011;27787;44.594;11.046;2023-08-24T10:30:39;14.10;;;5.72;;
42124;SDS011;27787;44.594;11.046;2023-08-24T10:33:24;10.80;;;5.25;;
42124;SDS011;27787;44.594;11.046;2023-08-24T10:36:10;11.18;;;5.70;;
42124;SDS011;27787;44.594;11.046;2023-08-24T10:38:57;8.13;;;5.40;;
42124;SDS011;27787;44.594;11.046;2023-08-24T10:41:50;10.15;;;4.72;;
42124;SDS011;27787;44.594;11.046;2023-08-24T10:44:36;12.25;;;4.43;;
42124;SDS011;27787;44.594;11.046;2023-08-24T10:47:21;8.10;;;4.80;;
42124;SDS011;27787;44.594;11.046;2023-08-24T10:50:07;7.50;;;4.10;;
42124;SDS011;27787;44.594;11.046;2023-08-24T10:52:53;6.07;;;3.95;;
42124;SDS011;27787;44.594;11.046;2023-08-24T10:55:37;6.23;;;4.43;;
42124;SDS011;27787;44.594;11.046;2023-08-24T10:58:21;5.45;;;4.40;;
42124;SDS011;27787;44.594;11.046;2023-08-24T11:01:06;10.93;;;4.38;;
42124;SDS011;27787;44.594;11.046;2023-08-24T11:03:54;10.93;;;4.30;;
42124;SDS011;27787;44.594;11.046;2023-08-24T11:09:46;11.20;;;4.07;;
42124;SDS011;27787;44.594;11.046;2023-08-24T11:12:59;8.10;;;4.47;;
42124;SDS011;27787;44.594;11.046;2023-08-24T11:15:49;7.25;;;4.03;;
42124;SDS011;27787;44.594;11.046;2023-08-24T11:18:43;6.47;;;3.85;;
42124;SDS011;27787;44.594;11.046;2023-08-24T11:21:27;6.00;;;3.67;;
42124;SDS011;27787;44.594;11.046;2023-08-24T11:24:12;7.20;;;3.85;;
42124;SDS011;27787;44.594;11.046;2023-08-24T11:26:57;5.70;;;4.30;;
42124;SDS011;27787;44.594;11.046;2023-08-24T11:29:44;5.57;;;4.13;;
42124;SDS011;27787;44.594;11.046;2023-08-24T11:32:28;8.77;;;4.07;;
42124;SDS011;27787;44.594;11.046;2023-08-24T11:35:12;5.32;;;3.80;;
42124;SDS011;27787;44.594;11.046;2023-08-24T11:37:57;8.60;;;4.38;;
42124;SDS011;27787;44.594;11.046;2023-08-24T11:40:42;6.38;;;4.22;;
42124;SDS011;27787;44.594;11.046;2023-08-24T11:43:26;6.28;;;4.38;;
42124;SDS011;27787;44.594;11.046;2023-08-24T11:46:11;12.98;;;4.70;;
42124;SDS011;27787;44.594;11.046;2023-08-24T11:48:57;6.55;;;3.97;;
42124;SDS011;27787;44.594;11.046;2023-08-24T11:51:42;7.70;;;3.92;;
42124;SDS011;27787;44.594;11.046;2023-08-24T11:54:27;6.43;;;4.50;;
42124;SDS011;27787;44.594;11.046;2023-08-24T11:57:12;5.07;;;3.83;;
42124;SDS011;27787;44.594;11.046;2023-08-24T11:59:56;12.38;;;4.30;;
42124;SDS011;27787;44.594;11.046;2023-08-24T12:02:40;8.25;;;4.40;;
42124;SDS011;27787;44.594;11.046;2023-08-24T12:05:26;8.70;;;3.90;;
42124;SDS011;27787;44.594;11.046;2023-08-24T12:08:11;6.22;;;4.55;;
42124;SDS011;27787;44.594;11.046;2023-08-24T12:10:56;7.13;;;4.32;;
42124;SDS011;27787;44.594;11.046;2023-08-24T12:13:48;8.00;;;4.10;;
42124;SDS011;27787;44.594;11.046;2023-08-24T12:16:33;7.22;;;4.03;;
42124;SDS011;27787;44.594;11.046;2023-08-24T12:19:21;7.25;;;4.13;;
42124;SDS011;27787;44.594;11.046;2023-08-24T12:22:06;8.60;;;3.95;;
42124;SDS011;27787;44.594;11.046;2023-08-24T12:24:50;9.20;;;4.40;;
42124;SDS011;27787;44.594;11.046;2023-08-24T12:27:34;7.10;;;4.10;;
42124;SDS011;27787;44.594;11.046;2023-08-24T12:30:19;6.68;;;4.38;;
42124;SDS011;27787;44.594;11.046;2023-08-24T12:33:04;6.88;;;4.50;;
42124;SDS011;27787;44.594;11.046;2023-08-24T12:35:48;6.82;;;3.92;;
42124;SDS011;27787;44.594;11.046;2023-08-24T12:38:32;7.78;;;4.28;;
42124;SDS011;27787;44.594;11.046;2023-08-24T12:41:18;10.30;;;4.05;;
42124;SDS011;27787;44.594;11.046;2023-08-24T12:44:03;6.28;;;4.00;;
42124;SDS011;27787;44.594;11.046;2023-08-24T12:46:49;8.75;;;4.28;;
42124;SDS011;27787;44.594;11.046;2023-08-24T12:49:33;4.97;;;3.85;;
42124;SDS011;27787;44.594;11.046;2023-08-24T12:52:17;6.25;;;4.32;;
42124;SDS011;27787;44.594;11.046;2023-08-24T12:55:02;6.57;;;4.35;;
42124;SDS011;27787;44.594;11.046;2023-08-24T12:57:47;6.28;;;4.15;;
42124;SDS011;27787;44.594;11.046;2023-08-24T13:00:32;9.30;;;4.28;;
42124;SDS011;27787;44.594;11.046;2023-08-24T13:06:01;4.93;;;3.90;;
42124;SDS011;27787;44.594;11.046;2023-08-24T13:08:45;8.65;;;4.10;;
42124;SDS011;27787;44.594;11.046;2023-08-24T13:11:29;5.25;;;4.20;;
42124;SDS011;27787;44.594;11.046;2023-08-24T13:14:13;7.90;;;4.70;;
42124;SDS011;27787;44.594;11.046;2023-08-24T13:16:57;6.07;;;4.07;;
42124;SDS011;27787;44.594;11.046;2023-08-24T13:19:41;6.57;;;4.20;;
42124;SDS011;27787;44.594;11.046;2023-08-24T13:25:10;10.20;;;4.25;;
42124;SDS011;27787;44.594;11.046;2023-08-24T13:30:39;7.93;;;4.20;;
42124;SDS011;27787;44.594;11.046;2023-08-24T13:33:24;5.57;;;3.88;;
42124;SDS011;27787;44.594;11.046;2023-08-24T13:36:08;6.85;;;4.35;;
42124;SDS011;27787;44.594;11.046;2023-08-24T13:38:52;6.70;;;4.38;;
42124;SDS011;27787;44.594;11.046;2023-08-24T13:41:36;4.97;;;4.15;;
42124;SDS011;27787;44.594;11.046;2023-08-24T13:44:21;13.30;;;4.93;;
42124;SDS011;27787;44.594;11.046;2023-08-24T13:47:04;6.05;;;4.65;;
42124;SDS011;27787;44.594;11.046;2023-08-24T13:52:33;7.10;;;4.28;;
42124;SDS011;27787;44.594;11.046;2023-08-24T13:55:18;7.82;;;4.38;;
42124;SDS011;27787;44.594;11.046;2023-08-24T13:58:01;8.70;;;4.03;;
42124;SDS011;27787;44.594;11.046;2023-08-24T14:00:47;5.30;;;3.97;;
42124;SDS011;27787;44.594;11.046;2023-08-24T14:03:31;9.35;;;3.85;;
42124;SDS011;27787;44.594;11.046;2023-08-24T14:09:00;6.82;;;3.75;;
42124;SDS011;27787;44.594;11.046;2023-08-24T14:14:29;8.13;;;4.20;;
42124;SDS011;27787;44.594;11.046;2023-08-24T14:19:57;6.97;;;3.55;;
42124;SDS011;27787;44.594;11.046;2023-08-24T14:22:41;6.32;;;3.92;;
42124;SDS011;27787;44.594;11.046;2023-08-24T14:25:25;6.22;;;3.97;;
42124;SDS011;27787;44.594;11.046;2023-08-24T14:28:09;7.15;;;3.60;;
42124;SDS011;27787;44.594;11.046;2023-08-24T14:30:53;4.90;;;3.45;;
42124;SDS011;27787;44.594;11.046;2023-08-24T14:33:37;8.38;;;3.95;;
42124;SDS011;27787;44.594;11.046;2023-08-24T14:36:21;6.47;;;3.95;;
42124;SDS011;27787;44.594;11.046;2023-08-24T14:39:06;3.65;;;3.10;;
42124;SDS011;27787;44.594;11.046;2023-08-24T14:41:51;7.63;;;3.42;;
42124;SDS011;27787;44.594;11.046;2023-08-24T14:44:35;4.53;;;3.22;;
42124;SDS011;27787;44.594;11.046;2023-08-24T14:47:19;5.97;;;3.63;;
42124;SDS011;27787;44.594;11.046;2023-08-24T14:50:04;6.90;;;3.63;;
42124;SDS011;27787;44.594;11.046;2023-08-24T14:52:49;5.20;;;3.35;;
42124;SDS011;27787;44.594;11.046;2023-08-24T14:55:33;4.88;;;3.10;;
42124;SDS011;27787;44.594;11.046;2023-08-24T14:58:17;3.90;;;3.10;;
42124;SDS011;27787;44.594;11.046;2023-08-24T15:01:02;8.73;;;3.40;;
42124;SDS011;27787;44.594;11.046;2023-08-24T15:03:47;4.90;;;3.10;;
42124;SDS011;27787;44.594;11.046;2023-08-24T15:06:31;5.70;;;3.40;;
42124;SDS011;27787;44.594;11.046;2023-08-24T15:09:15;7.47;;;3.50;;
42124;SDS011;27787;44.594;11.046;2023-08-24T15:11:59;5.40;;;3.13;;
42124;SDS011;27787;44.594;11.046;2023-08-24T15:14:55;5.97;;;3.47;;
42124;SDS011;27787;44.594;11.046;2023-08-24T15:17:41;5.80;;;3.30;;
42124;SDS011;27787;44.594;11.046;2023-08-24T15:20:25;4.80;;;3.50;;
42124;SDS011;27787;44.594;11.046;2023-08-24T15:25:55;5.95;;;3.15;;
42124;SDS011;27787;44.594;11.046;2023-08-24T15:32:01;5.57;;;3.25;;
42124;SDS011;27787;44.594;11.046;2023-08-24T15:34:45;5.28;;;3.28;;
42124;SDS011;27787;44.594;11.046;2023-08-24T15:37:30;5.43;;;3.20;;
42124;SDS011;27787;44.594;11.046;2023-08-24T15:42:59;5.15;;;3.53;;
42124;SDS011;27787;44.594;11.046;2023-08-24T15:45:44;4.65;;;3.40;;
42124;SDS011;27787;44.594;11.046;2023-08-24T15:48:28;7.15;;;3.40;;
42124;SDS011;27787;44.594;11.046;2023-08-24T15:51:12;9.63;;;3.42;;
42124;SDS011;27787;44.594;11.046;2023-08-24T15:53:56;4.88;;;2.97;;
42124;SDS011;27787;44.594;11.046;2023-08-24T15:56:40;5.15;;;3.10;;
42124;SDS011;27787;44.594;11.046;2023-08-24T15:59:28;8.88;;;3.40;;
42124;SDS011;27787;44.594;11.046;2023-08-24T16:02:12;5.15;;;3.55;;
42124;SDS011;27787;44.594;11.046;2023-08-24T16:04:56;5.50;;;3.40;;
42124;SDS011;27787;44.594;11.046;2023-08-24T16:07:40;7.35;;;3.70;;
42124;SDS011;27787;44.594;11.046;2023-08-24T16:10:24;5.35;;;3.17;;
42124;SDS011;27787;44.594;11.046;2023-08-24T16:13:08;6.13;;;3.28;;
42124;SDS011;27787;44.594;11.046;2023-08-24T16:18:36;6.18;;;3.65;;
42124;SDS011;27787;44.594;11.046;2023-08-24T16:21:21;5.63;;;3.17;;
42124;SDS011;27787;44.594;11.046;2023-08-24T16:24:05;4.97;;;3.42;;
42124;SDS011;27787;44.594;11.046;2023-08-24T16:26:51;8.75;;;3.15;;
42124;SDS011;27787;44.594;11.046;2023-08-24T16:29:35;4.70;;;3.45;;
42124;SDS011;27787;44.594;11.046;2023-08-24T16:32:19;5.90;;;3.40;;
42124;SDS011;27787;44.594;11.046;2023-08-24T16:35:03;5.50;;;3.40;;
42124;SDS011;27787;44.594;11.046;2023-08-24T16:37:47;5.57;;;2.92;;
42124;SDS011;27787;44.594;11.046;2023-08-24T16:40:33;5.78;;;3.30;;
42124;SDS011;27787;44.594;11.046;2023-08-24T16:43:18;5.55;;;3.25;;
42124;SDS011;27787;44.594;11.046;2023-08-24T16:46:03;4.70;;;3.20;;
42124;SDS011;27787;44.594;11.046;2023-08-24T16:48:47;4.20;;;3.10;;
42124;SDS011;27787;44.594;11.046;2023-08-24T16:51:31;6.80;;;3.33;;
42124;SDS011;27787;44.594;11.046;2023-08-24T16:54:16;5.53;;;2.97;;
42124;SDS011;27787;44.594;11.046;2023-08-24T16:57:01;4.38;;;3.08;;
42124;SDS011;27787;44.594;11.046;2023-08-24T16:59:45;4.85;;;3.33;;
42124;SDS011;27787;44.594;11.046;2023-08-24T17:02:30;4.30;;;3.45;;
42124;SDS011;27787;44.594;11.046;2023-08-24T17:05:14;8.25;;;3.70;;
42124;SDS011;27787;44.594;11.046;2023-08-24T17:08:06;7.18;;;3.60;;
42124;SDS011;27787;44.594;11.046;2023-08-24T17:10:52;5.10;;;2.97;;
42124;SDS011;27787;44.594;11.046;2023-08-24T17:16:20;7.50;;;3.80;;
42124;SDS011;27787;44.594;11.046;2023-08-24T17:19:05;8.07;;;3.42;;
42124;SDS011;27787;44.594;11.046;2023-08-24T17:21:50;6.80;;;3.50;;
42124;SDS011;27787;44.594;11.046;2023-08-24T17:24:35;5.85;;;3.20;;
42124;SDS011;27787;44.594;11.046;2023-08-24T17:27:19;4.65;;;3.15;;
42124;SDS011;27787;44.594;11.046;2023-08-24T17:30:04;4.72;;;3.22;;